Time;durP1;ratioP1;P1;durP2;ratioP2;P2;SDS_P1;SDS_P2;PMS_P1;PMS_P2;Temp;Humidity;BMP_temperature;BMP_pressure;BME280_temperature;BME280_humidity;BME280_pressure;Samples;Min_cycle;Max_cycle;Signal;HPM_P1;HPM_P2
2021/05/31 00:01:59;;;;;;;8.27;4.87;;;13.80;99.90;;;;;;5105064;28;20237;-64
2021/05/31 00:04:31;;;;;;;5.20;4.80;;;13.70;99.90;;;;;;5099506;28;20186;-64
2021/05/31 00:07:04;;;;;;;5.20;4.70;;;13.70;99.90;;;;;;5104625;28;20215;-65
2021/05/31 00:09:34;;;;;;;6.50;5.30;;;13.60;99.90;;;;;;5103535;28;20204;-64
2021/05/31 00:12:05;;;;;;;7.20;5.23;;;13.50;99.90;;;;;;5104164;28;20184;-64
2021/05/31 00:14:34;;;;;;;6.23;5.30;;;13.50;99.90;;;;;;5104227;28;20412;-64
2021/05/31 00:17:01;;;;;;;5.83;5.00;;;13.40;99.90;;;;;;5097928;28;20191;-64
2021/05/31 00:19:31;;;;;;;7.43;5.00;;;13.40;99.90;;;;;;5103294;28;20192;-64
2021/05/31 00:22:01;;;;;;;6.10;5.33;;;13.30;99.90;;;;;;5101797;28;20231;-64
2021/05/31 00:24:29;;;;;;;5.40;4.90;;;13.30;99.90;;;;;;5100409;28;20394;-64
2021/05/31 00:26:58;;;;;;;5.60;5.10;;;13.30;99.90;;;;;;5101406;28;20289;-64
2021/05/31 00:29:26;;;;;;;5.73;4.93;;;13.30;99.90;;;;;;5100892;28;20431;-64
2021/05/31 00:31:55;;;;;;;5.77;5.20;;;13.30;99.90;;;;;;5104645;28;20183;-64
2021/05/31 00:34:23;;;;;;;5.53;5.03;;;13.30;99.90;;;;;;5101442;28;20188;-64
2021/05/31 00:36:52;;;;;;;8.80;5.20;;;13.20;99.90;;;;;;5082007;28;20319;-64
2021/05/31 00:39:23;;;;;;;5.50;5.10;;;13.20;99.90;;;;;;5103566;28;20237;-65
2021/05/31 00:41:54;;;;;;;7.97;5.50;;;13.20;99.90;;;;;;5103299;28;20183;-64
2021/05/31 00:44:23;;;;;;;5.50;5.00;;;13.20;99.90;;;;;;5103872;28;20207;-65
2021/05/31 00:46:53;;;;;;;5.87;5.37;;;13.20;99.90;;;;;;5104341;28;20215;-64
2021/05/31 00:49:27;;;;;;;6.10;5.43;;;13.10;99.90;;;;;;5104374;28;20249;-64
2021/05/31 00:51:56;;;;;;;6.87;5.17;;;13.10;99.90;;;;;;5103980;28;20462;-64
2021/05/31 00:54:24;;;;;;;5.70;5.20;;;13.00;99.90;;;;;;5099768;28;20187;-64
2021/05/31 00:56:54;;;;;;;5.43;5.03;;;13.00;99.90;;;;;;5102611;27;20226;-64
2021/05/31 00:59:23;;;;;;;14.37;6.00;;;12.90;99.90;;;;;;5098406;28;20195;-64
2021/05/31 01:01:56;;;;;;;5.60;5.20;;;12.90;99.90;;;;;;5100497;28;20199;-64
2021/05/31 01:04:25;;;;;;;8.47;5.77;;;12.80;99.90;;;;;;5103128;28;20187;-64
2021/05/31 01:07:00;;;;;;;6.53;5.93;;;12.80;99.90;;;;;;5101670;28;20207;-64
2021/05/31 01:09:35;;;;;;;7.27;6.17;;;12.70;99.90;;;;;;5094486;28;20195;-64
2021/05/31 01:12:11;;;;;;;6.70;6.00;;;12.50;99.90;;;;;;5102512;28;20183;-63
2021/05/31 01:14:46;;;;;;;6.20;5.60;;;12.40;99.90;;;;;;5093517;28;20183;-64
2021/05/31 01:17:19;;;;;;;6.57;5.97;;;12.30;99.90;;;;;;5103315;28;20175;-64
2021/05/31 01:20:04;;;;;;;7.00;6.30;;;12.30;99.90;;;;;;5102573;28;20180;-64
2021/05/31 01:22:38;;;;;;;7.30;5.87;;;12.30;99.90;;;;;;5074771;28;20203;-64
2021/05/31 01:25:19;;;;;;;6.73;6.10;;;12.20;99.90;;;;;;5097018;28;20171;-64
2021/05/31 01:28:05;;;;;;;6.67;5.97;;;12.10;99.90;;;;;;5098467;28;20249;-64
2021/05/31 01:30:34;;;;;;;7.50;6.23;;;12.00;99.90;;;;;;5102568;28;20296;-64
2021/05/31 01:33:05;;;;;;;7.37;6.53;;;12.00;99.90;;;;;;5094826;28;20490;-66
2021/05/31 01:35:36;;;;;;;6.67;5.83;;;12.00;99.90;;;;;;5092287;28;20188;-63
2021/05/31 01:38:05;;;;;;;7.07;6.37;;;11.90;99.90;;;;;;5107481;28;20312;-64
2021/05/31 01:40:34;;;;;;;7.57;5.80;;;11.90;99.90;;;;;;5100844;28;20195;-64
2021/05/31 01:43:06;;;;;;;10.03;6.37;;;11.90;99.90;;;;;;5102585;28;20188;-64
2021/05/31 01:45:36;;;;;;;7.30;6.60;;;11.90;99.90;;;;;;5100878;28;20175;-64
2021/05/31 01:48:06;;;;;;;6.83;5.97;;;11.90;99.90;;;;;;5101788;28;20316;-64
2021/05/31 01:50:34;;;;;;;9.67;6.90;;;11.80;99.90;;;;;;5094868;28;20197;-64
2021/05/31 01:53:04;;;;;;;6.60;6.00;;;11.80;99.90;;;;;;5092995;28;20463;-64
2021/05/31 01:55:33;;;;;;;7.63;5.97;;;11.70;99.90;;;;;;5100397;28;20183;-61
2021/05/31 01:58:01;;;;;;;7.37;6.33;;;11.70;99.90;;;;;;5102965;28;20203;-64
2021/05/31 02:00:33;;;;;;;6.47;5.80;;;11.60;99.90;;;;;;5101401;28;20241;-64
2021/05/31 02:03:03;;;;;;;9.30;6.67;;;11.60;99.90;;;;;;5102581;28;20205;-64
2021/05/31 02:05:39;;;;;;;9.73;6.97;;;11.50;99.90;;;;;;5100385;28;20189;-64
2021/05/31 02:08:06;;;;;;;9.83;6.07;;;11.50;99.90;;;;;;5098018;28;20191;-64
2021/05/31 02:10:35;;;;;;;7.90;5.87;;;11.50;99.90;;;;;;5102965;28;20183;-64
2021/05/31 02:13:04;;;;;;;7.43;6.73;;;11.40;99.90;;;;;;5101372;28;20341;-64
2021/05/31 02:15:40;;;;;;;7.63;6.83;;;11.40;99.90;;;;;;5094863;28;20219;-59
2021/05/31 02:18:16;;;;;;;8.80;7.20;;;11.40;99.90;;;;;;5097094;28;20186;-64
2021/05/31 02:20:46;;;;;;;7.67;6.57;;;11.40;99.90;;;;;;5094849;28;20334;-64
2021/05/31 02:23:16;;;;;;;8.00;6.60;;;11.30;99.90;;;;;;5096601;28;20184;-64
2021/05/31 02:25:45;;;;;;;7.20;6.57;;;11.30;99.90;;;;;;5099436;28;20420;-64
2021/05/31 02:28:13;;;;;;;6.70;6.00;;;11.20;99.90;;;;;;5101359;28;20249;-64
2021/05/31 02:30:42;;;;;;;9.50;6.40;;;11.20;99.90;;;;;;5100905;28;20229;-64
2021/05/31 02:33:12;;;;;;;8.17;6.67;;;11.20;99.90;;;;;;5101593;28;20202;-64
2021/05/31 02:35:41;;;;;;;9.33;6.83;;;11.10;99.90;;;;;;5093457;28;20224;-64
2021/05/31 02:38:08;;;;;;;7.20;6.50;;;11.10;99.90;;;;;;5099717;28;20225;-64
2021/05/31 02:40:37;;;;;;;8.17;6.63;;;11.10;99.90;;;;;;5096964;28;20213;-64
2021/05/31 02:43:09;;;;;;;8.17;6.43;;;11.10;99.90;;;;;;5100043;28;20179;-64
2021/05/31 02:45:41;;;;;;;6.90;6.30;;;11.00;99.90;;;;;;5101298;28;20225;-64
2021/05/31 02:48:09;;;;;;;7.77;6.90;;;11.00;99.90;;;;;;5099286;28;20214;-64
2021/05/31 02:50:39;;;;;;;7.00;6.30;;;10.90;99.90;;;;;;5100827;28;20175;-64
2021/05/31 02:53:08;;;;;;;10.73;7.10;;;10.90;99.90;;;;;;5102185;28;20179;-64
2021/05/31 02:55:36;;;;;;;11.67;7.07;;;10.90;99.90;;;;;;5096457;28;20237;-64
2021/05/31 02:58:04;;;;;;;7.97;6.93;;;10.80;99.90;;;;;;5099001;28;20187;-63
2021/05/31 03:00:32;;;;;;;9.00;7.00;;;10.80;99.90;;;;;;5098636;28;21557;-64
2021/05/31 03:03:00;;;;;;;13.03;7.00;;;10.80;99.90;;;;;;5101957;28;20259;-66
2021/05/31 03:05:29;;;;;;;8.07;7.27;;;10.80;99.90;;;;;;5097996;28;20206;-64
2021/05/31 03:07:59;;;;;;;9.23;7.63;;;10.70;99.90;;;;;;5097857;28;20207;-64
2021/05/31 03:10:29;;;;;;;9.30;7.50;;;10.70;99.90;;;;;;5098794;28;20376;-63
2021/05/31 03:13:00;;;;;;;9.40;7.00;;;10.60;99.90;;;;;;5100911;28;20183;-64
2021/05/31 03:15:28;;;;;;;11.47;7.60;;;10.60;99.90;;;;;;5099629;28;20183;-64
2021/05/31 03:17:57;;;;;;;9.17;7.53;;;10.60;99.90;;;;;;5093027;28;20240;-64
2021/05/31 03:20:26;;;;;;;9.30;7.60;;;10.60;99.90;;;;;;5100748;28;20190;-64
2021/05/31 03:22:54;;;;;;;8.87;7.70;;;10.60;99.90;;;;;;5098778;28;20195;-64
2021/05/31 03:25:27;;;;;;;9.67;8.40;;;10.50;99.90;;;;;;5096687;28;20200;-64
2021/05/31 03:27:58;;;;;;;11.00;8.03;;;10.50;99.90;;;;;;5101393;28;20211;-64
2021/05/31 03:30:28;;;;;;;9.77;7.87;;;10.50;99.90;;;;;;5100578;28;20247;-64
2021/05/31 03:32:58;;;;;;;12.13;8.30;;;10.50;99.90;;;;;;5097117;28;20183;-64
2021/05/31 03:35:26;;;;;;;10.07;7.80;;;10.50;99.90;;;;;;5100883;28;20229;-66
2021/05/31 03:37:54;;;;;;;9.43;7.77;;;10.50;99.90;;;;;;5099510;28;20339;-64
2021/05/31 03:40:30;;;;;;;9.90;8.73;;;10.50;99.90;;;;;;5097029;28;20183;-64
2021/05/31 03:42:58;;;;;;;9.30;8.10;;;10.50;99.90;;;;;;5095720;28;20238;-64
2021/05/31 03:45:26;;;;;;;10.90;8.83;;;10.50;99.90;;;;;;5097949;28;20210;-64
2021/05/31 03:47:55;;;;;;;9.00;8.10;;;10.50;99.90;;;;;;5101088;28;20369;-64
2021/05/31 03:50:23;;;;;;;10.20;9.13;;;10.50;99.90;;;;;;5095157;28;20211;-64
2021/05/31 03:52:51;;;;;;;14.70;8.90;;;10.40;99.90;;;;;;5100586;28;20264;-64
2021/05/31 03:55:19;;;;;;;13.17;9.17;;;10.40;99.90;;;;;;5097853;28;20338;-64
2021/05/31 03:57:50;;;;;;;10.57;8.97;;;10.40;99.90;;;;;;5092290;28;20194;-64
2021/05/31 04:00:19;;;;;;;14.30;9.23;;;10.40;99.90;;;;;;5095986;28;20199;-64
2021/05/31 04:02:47;;;;;;;11.47;9.50;;;10.40;99.90;;;;;;5099932;28;20176;-64
2021/05/31 04:05:15;;;;;;;13.57;9.07;;;10.40;99.90;;;;;;5096903;28;20303;-64
2021/05/31 04:13:23;;;;;;;9.73;8.80;;;10.40;99.90;;;;;;5104602;28;20262;-64
2021/05/31 04:15:53;;;;;;;11.27;8.53;;;10.40;99.90;;;;;;5101632;28;20249;-64
2021/05/31 04:18:21;;;;;;;13.43;8.60;;;10.40;99.90;;;;;;5103852;28;20187;-64
2021/05/31 04:20:49;;;;;;;13.80;9.87;;;10.40;99.90;;;;;;5101437;28;20259;-66
2021/05/31 04:23:17;;;;;;;12.20;9.47;;;10.50;99.90;;;;;;5092803;28;20420;-64
2021/05/31 04:25:45;;;;;;;12.57;9.27;;;10.50;99.90;;;;;;5097442;28;20219;-64
2021/05/31 04:28:12;;;;;;;12.50;9.50;;;10.60;99.90;;;;;;5101477;28;20215;-64
2021/05/31 04:30:41;;;;;;;12.93;8.93;;;10.60;99.90;;;;;;5102694;28;20368;-64
2021/05/31 04:33:10;;;;;;;14.43;9.97;;;10.70;99.90;;;;;;5103790;28;20197;-64
2021/05/31 04:35:38;;;;;;;14.50;10.70;;;10.70;99.90;;;;;;5097271;28;20183;-64
2021/05/31 04:38:06;;;;;;;11.60;8.57;;;10.80;99.90;;;;;;5102664;28;20382;-64
2021/05/31 04:40:34;;;;;;;13.80;9.33;;;10.90;99.90;;;;;;5100147;28;20389;-64
2021/05/31 04:43:02;;;;;;;12.00;9.33;;;11.00;99.90;;;;;;5099637;28;20194;-64
2021/05/31 04:45:32;;;;;;;14.70;9.30;;;11.10;99.90;;;;;;5102732;28;20375;-64
2021/05/31 04:48:02;;;;;;;14.67;9.90;;;11.20;99.90;;;;;;5102982;28;20366;-64
2021/05/31 04:50:30;;;;;;;11.07;8.90;;;11.30;99.90;;;;;;5103961;28;20191;-64
2021/05/31 04:52:57;;;;;;;13.13;9.30;;;11.40;99.90;;;;;;5097979;28;20175;-64
2021/05/31 04:55:26;;;;;;;11.13;8.93;;;11.60;99.90;;;;;;5091787;28;20419;-63
2021/05/31 04:57:54;;;;;;;12.40;9.40;;;11.70;99.90;;;;;;5092192;28;20432;-64
2021/05/31 05:00:22;;;;;;;12.00;9.57;;;11.70;99.90;;;;;;5102138;28;20354;-64
2021/05/31 05:02:50;;;;;;;13.07;9.80;;;11.90;99.90;;;;;;5097705;28;20437;-64
2021/05/31 05:05:20;;;;;;;14.20;9.73;;;12.00;99.90;;;;;;5098383;28;20179;-64
2021/05/31 05:07:48;;;;;;;10.27;9.03;;;12.10;99.90;;;;;;5104534;28;20202;-64
2021/05/31 05:10:18;;;;;;;12.77;9.07;;;12.30;99.90;;;;;;5099077;28;20207;-64
2021/05/31 05:12:48;;;;;;;11.47;9.27;;;12.40;99.90;;;;;;5093753;28;20192;-64
2021/05/31 05:15:17;;;;;;;11.87;10.33;;;12.50;99.90;;;;;;5099916;28;20203;-64
2021/05/31 05:17:46;;;;;;;12.03;9.30;;;12.60;99.90;;;;;;5099831;28;20196;-64
2021/05/31 05:20:15;;;;;;;11.80;8.70;;;12.80;99.90;;;;;;5098512;28;20437;-64
2021/05/31 05:22:45;;;;;;;13.70;9.33;;;12.80;99.90;;;;;;5089414;28;20310;-64
2021/05/31 05:25:14;;;;;;;14.47;9.70;;;13.00;99.90;;;;;;5101162;28;20368;-64
2021/05/31 05:27:43;;;;;;;9.97;8.97;;;13.20;99.90;;;;;;5099174;28;20224;-64
2021/05/31 05:30:14;;;;;;;11.90;9.60;;;13.30;99.90;;;;;;5098601;28;20444;-64
2021/05/31 05:32:47;;;;;;;11.10;8.87;;;13.50;99.90;;;;;;5097064;28;20199;-64
2021/05/31 05:35:22;;;;;;;9.43;8.43;;;13.60;99.90;;;;;;5098013;28;20207;-64
2021/05/31 05:38:06;;;;;;;12.67;8.77;;;13.80;99.90;;;;;;5096797;28;20179;-64
2021/05/31 05:40:55;;;;;;;13.30;8.80;;;14.00;99.90;;;;;;5100631;28;20240;-64
2021/05/31 05:46:24;;;;;;;11.30;9.17;;;14.20;99.90;;;;;;5097418;28;20209;-64
2021/05/31 05:48:57;;;;;;;14.87;8.47;;;14.30;99.90;;;;;;5097610;28;20290;-64
2021/05/31 05:51:25;;;;;;;14.73;8.33;;;14.50;99.90;;;;;;5095782;28;20203;-64
2021/05/31 05:53:59;;;;;;;12.27;8.33;;;14.60;99.90;;;;;;5097217;28;20187;-63
2021/05/31 05:56:28;;;;;;;10.43;8.30;;;14.80;99.90;;;;;;5100240;28;20179;-64
2021/05/31 05:58:56;;;;;;;11.67;8.63;;;15.00;99.90;;;;;;5098802;28;20459;-64
2021/05/31 06:01:26;;;;;;;13.33;7.33;;;15.10;99.90;;;;;;5095555;28;20336;-65
2021/05/31 06:03:55;;;;;;;10.77;7.93;;;15.40;99.90;;;;;;5092685;28;20485;-65
2021/05/31 06:06:25;;;;;;;14.10;8.13;;;15.50;99.90;;;;;;5095935;28;20184;-64
2021/05/31 06:08:54;;;;;;;13.63;7.33;;;15.70;99.90;;;;;;5100336;28;20431;-65
2021/05/31 06:11:25;;;;;;;12.93;8.07;;;15.80;99.90;;;;;;5101167;28;20352;-65
2021/05/31 06:13:53;;;;;;;9.73;7.77;;;15.90;99.90;;;;;;5100988;28;20185;-65
2021/05/31 06:16:21;;;;;;;13.03;7.50;;;16.20;99.90;;;;;;5101463;28;20187;-65
2021/05/31 06:18:50;;;;;;;12.07;7.40;;;16.40;99.90;;;;;;5095536;28;20214;-65
2021/05/31 06:21:18;;;;;;;14.53;7.57;;;16.60;99.90;;;;;;5094008;28;20399;-65
2021/05/31 06:23:46;;;;;;;8.97;6.70;;;16.70;99.90;;;;;;5100564;28;20244;-64
2021/05/31 06:26:16;;;;;;;12.43;6.83;;;16.70;99.90;;;;;;5101095;28;20211;-65
2021/05/31 06:28:44;;;;;;;9.13;7.37;;;16.80;99.90;;;;;;5101678;28;20280;-65
2021/05/31 06:31:12;;;;;;;9.93;6.27;;;17.10;99.90;;;;;;5100939;28;20183;-65
2021/05/31 06:33:40;;;;;;;11.97;6.43;;;17.30;99.90;;;;;;5101665;28;20179;-65
2021/05/31 06:36:09;;;;;;;10.93;6.47;;;17.60;99.90;;;;;;5095202;28;20486;-65
2021/05/31 06:38:37;;;;;;;9.97;6.73;;;17.70;99.90;;;;;;5089546;28;20187;-65
2021/05/31 06:41:05;;;;;;;10.10;6.60;;;17.80;99.90;;;;;;5097237;28;20202;-61
2021/05/31 06:43:35;;;;;;;8.40;6.13;;;17.90;99.90;;;;;;5093299;28;20186;-65
2021/05/31 06:46:07;;;;;;;9.73;6.37;;;18.10;99.90;;;;;;5089855;28;20186;-65
2021/05/31 06:48:36;;;;;;;8.30;6.00;;;18.30;99.90;;;;;;5092251;28;20491;-65
2021/05/31 06:51:05;;;;;;;6.53;5.87;;;18.40;99.90;;;;;;5092957;28;20202;-65
2021/05/31 06:53:33;;;;;;;8.60;5.70;;;18.40;99.90;;;;;;5084901;28;20390;-65
2021/05/31 06:56:01;;;;;;;8.13;5.80;;;18.50;99.90;;;;;;5085719;28;20176;-65
2021/05/31 06:58:30;;;;;;;7.67;6.10;;;19.00;99.90;;;;;;5099446;28;20191;-65
2021/05/31 07:01:00;;;;;;;9.17;6.00;;;19.10;99.90;;;;;;5097348;28;20190;-65
2021/05/31 07:03:28;;;;;;;7.23;5.80;;;19.10;99.90;;;;;;5100123;28;20253;-65
2021/05/31 07:05:56;;;;;;;8.60;6.80;;;19.20;99.90;;;;;;5095456;28;20343;-65
2021/05/31 07:08:25;;;;;;;13.43;5.80;;;19.40;99.90;;;;;;5090053;28;20204;-65
2021/05/31 07:10:56;;;;;;;7.33;5.73;;;19.80;99.90;;;;;;5096788;28;20187;-65
2021/05/31 07:13:24;;;;;;;5.83;5.03;;;20.10;99.90;;;;;;5099048;28;20279;-65
2021/05/31 07:15:52;;;;;;;5.30;4.90;;;20.00;99.90;;;;;;5096352;28;20179;-63
2021/05/31 07:18:22;;;;;;;5.40;4.90;;;19.90;99.90;;;;;;5094822;28;20187;-63
2021/05/31 07:20:52;;;;;;;9.63;5.37;;;20.20;99.90;;;;;;5092457;28;20350;-63
2021/05/31 07:23:23;;;;;;;6.47;4.97;;;20.60;99.90;;;;;;5087769;28;20188;-63
2021/05/31 07:25:51;;;;;;;8.83;4.87;;;20.80;99.90;;;;;;5092580;28;20207;-62
2021/05/31 07:28:23;;;;;;;7.27;4.80;;;20.80;99.90;;;;;;5096306;28;20221;-64
2021/05/31 07:30:55;;;;;;;7.33;4.83;;;20.90;99.90;;;;;;5099393;28;20175;-63
2021/05/31 07:33:24;;;;;;;8.17;5.20;;;21.40;99.90;;;;;;5096003;28;20179;-63
2021/05/31 07:35:53;;;;;;;8.03;4.90;;;21.50;99.90;;;;;;5097818;28;20321;-63
2021/05/31 07:38:22;;;;;;;6.63;5.13;;;21.50;99.90;;;;;;5092023;28;20183;-65
2021/05/31 07:40:50;;;;;;;5.43;4.77;;;21.40;99.90;;;;;;5091999;28;20179;-63
2021/05/31 07:43:18;;;;;;;5.43;4.80;;;21.30;99.90;;;;;;5102879;28;20313;-63
2021/05/31 07:45:47;;;;;;;8.70;5.20;;;21.60;99.90;;;;;;5096500;28;20345;-57
2021/05/31 07:48:15;;;;;;;5.00;4.60;;;21.90;99.90;;;;;;5093130;28;20210;-63
2021/05/31 07:50:44;;;;;;;12.00;4.63;;;21.90;99.90;;;;;;5107803;28;20192;-64
2021/05/31 07:53:19;;;;;;;4.60;4.30;;;21.90;99.90;;;;;;5089999;28;20319;-63
2021/05/31 07:55:47;;;;;;;4.93;4.07;;;21.90;99.90;;;;;;5103139;28;20185;-62
2021/05/31 07:58:16;;;;;;;7.10;4.77;;;22.00;99.90;;;;;;5090908;28;20185;-62
2021/05/31 08:00:44;;;;;;;4.43;4.07;;;22.30;99.90;;;;;;5100579;28;20229;-65
2021/05/31 08:03:12;;;;;;;4.90;4.37;;;22.20;99.90;;;;;;5099999;28;20181;-63
2021/05/31 08:05:39;;;;;;;5.67;4.33;;;22.50;99.90;;;;;;5091582;28;20188;-63
2021/05/31 08:08:09;;;;;;;6.93;4.50;;;22.80;99.90;;;;;;5100673;28;20570;-63
2021/05/31 08:10:38;;;;;;;4.77;4.33;;;23.00;99.90;;;;;;5098677;28;20424;-66
2021/05/31 08:13:06;;;;;;;6.63;5.10;;;23.20;99.90;;;;;;5103792;28;20451;-63
2021/05/31 08:15:34;;;;;;;5.47;4.80;;;23.40;99.90;;;;;;5102357;28;20191;-63
2021/05/31 08:18:02;;;;;;;5.17;4.77;;;23.40;99.90;;;;;;5102174;28;20180;-64
2021/05/31 08:20:30;;;;;;;6.37;4.50;;;23.40;99.90;;;;;;5091797;28;20345;-64
2021/05/31 08:23:01;;;;;;;7.30;4.63;;;24.20;99.90;;;;;;5099579;28;20430;-64
2021/05/31 08:25:30;;;;;;;7.10;4.70;;;24.10;99.90;;;;;;5098097;28;20340;-64
2021/05/31 08:27:58;;;;;;;6.60;4.40;;;24.00;99.90;;;;;;5102960;28;20453;-64
2021/05/31 08:30:26;;;;;;;4.73;3.93;;;24.30;99.90;;;;;;5105459;28;20195;-64
2021/05/31 08:32:54;;;;;;;4.97;3.80;;;24.20;99.90;;;;;;5102655;28;20429;-64
2021/05/31 08:35:22;;;;;;;4.45;4.05;;;25.00;99.90;;;;;;5096835;28;20232;-64
2021/05/31 08:37:50;;;;;;;9.82;4.70;;;25.20;99.90;;;;;;5099216;28;20181;-63
2021/05/31 08:40:18;;;;;;;9.32;4.40;;;25.40;99.90;;;;;;5091202;28;20185;-64
2021/05/31 08:42:48;;;;;;;7.97;4.20;;;25.50;99.90;;;;;;5101267;28;20265;-64
2021/05/31 08:45:21;;;;;;;4.00;3.67;;;25.80;99.90;;;;;;5102359;28;20321;-64
2021/05/31 08:47:53;;;;;;;6.95;4.13;;;26.00;99.90;;;;;;5102424;28;20240;-64
2021/05/31 08:50:23;;;;;;;3.35;3.08;;;26.00;99.90;;;;;;5101824;28;20197;-64
2021/05/31 08:52:52;;;;;;;4.18;3.70;;;26.20;99.90;;;;;;5101867;28;20179;-64
2021/05/31 08:55:23;;;;;;;4.63;3.38;;;26.40;99.90;;;;;;5099915;28;20413;-65
2021/05/31 08:57:53;;;;;;;4.38;3.97;;;26.50;99.90;;;;;;5083728;28;20188;-64
2021/05/31 09:00:24;;;;;;;6.28;3.65;;;26.90;99.90;;;;;;5096176;28;20203;-64
2021/05/31 09:02:53;;;;;;;3.95;3.55;;;27.40;99.90;;;;;;5097750;28;20184;-64
2021/05/31 09:05:33;;;;;;;5.22;2.97;;;27.70;99.90;;;;;;5101887;28;20247;-64
2021/05/31 09:08:08;;;;;;;5.13;3.38;;;28.10;99.90;;;;;;5099740;28;20178;-65
2021/05/31 09:10:39;;;;;;;3.47;3.17;;;28.00;99.90;;;;;;5103026;28;20233;-65
2021/05/31 09:13:08;;;;;;;7.55;3.35;;;28.10;99.90;;;;;;5097783;28;20181;-64
2021/05/31 09:15:44;;;;;;;3.10;2.90;;;28.10;99.90;;;;;;5099153;28;20197;-63
2021/05/31 09:18:12;;;;;;;5.78;2.95;;;28.30;99.90;;;;;;5093775;28;20174;-64
2021/05/31 09:20:40;;;;;;;3.78;2.85;;;28.10;99.60;;;;;;5101056;28;20186;-65
2021/05/31 09:23:10;;;;;;;3.65;3.35;;;27.90;99.60;;;;;;5096766;28;20198;-64
2021/05/31 09:25:38;;;;;;;4.28;2.83;;;28.30;98.70;;;;;;5105501;28;20228;-65
2021/05/31 09:28:15;;;;;;;3.50;3.10;;;28.20;97.70;;;;;;5100951;28;20436;-64
2021/05/31 09:30:45;;;;;;;3.05;2.85;;;28.00;97.00;;;;;;5101489;28;20188;-65
2021/05/31 09:33:15;;;;;;;2.90;2.60;;;27.90;97.80;;;;;;5099480;28;20322;-64
2021/05/31 09:35:45;;;;;;;2.90;2.70;;;27.90;98.70;;;;;;5091118;28;20256;-66
2021/05/31 09:38:15;;;;;;;2.90;2.75;;;27.90;97.30;;;;;;5094950;28;20185;-65
2021/05/31 09:40:51;;;;;;;5.50;2.90;;;28.10;99.10;;;;;;5091460;28;20436;-65
2021/05/31 09:43:22;;;;;;;3.15;2.78;;;28.10;97.50;;;;;;5097202;28;20448;-64
2021/05/31 09:45:50;;;;;;;3.25;2.85;;;28.10;96.30;;;;;;5099467;28;20428;-64
2021/05/31 09:48:18;;;;;;;6.65;2.85;;;28.30;96.30;;;;;;5103070;28;20412;-65
2021/05/31 09:50:58;;;;;;;3.70;3.20;;;28.40;94.80;;;;;;5093922;28;20193;-63
2021/05/31 09:53:35;;;;;;;2.60;2.47;;;28.30;95.70;;;;;;5095462;28;20192;-65
2021/05/31 09:56:13;;;;;;;3.00;2.72;;;28.20;96.30;;;;;;5098212;28;20190;-64
2021/05/31 09:58:52;;;;;;;2.75;2.50;;;28.30;97.00;;;;;;5102081;28;20248;-64
2021/05/31 10:01:34;;;;;;;3.05;2.80;;;28.40;94.50;;;;;;5092596;28;20445;-64
2021/05/31 10:06:52;;;;;;;3.22;3.00;;;28.80;95.50;;;;;;5094002;28;20446;-64
2021/05/31 10:09:20;;;;;;;3.47;2.80;;;28.20;96.50;;;;;;5100011;28;20210;-64
2021/05/31 10:11:50;;;;;;;2.58;2.47;;;28.10;94.70;;;;;;5097661;28;20179;-64
2021/05/31 10:14:20;;;;;;;2.78;2.67;;;28.20;93.60;;;;;;5097371;28;20492;-64
2021/05/31 10:16:49;;;;;;;3.65;3.42;;;28.40;93.40;;;;;;5097445;28;20232;-63
2021/05/31 10:19:17;;;;;;;2.90;2.80;;;28.40;94.80;;;;;;5102214;28;20434;-64
2021/05/31 10:21:46;;;;;;;5.05;3.13;;;28.30;95.30;;;;;;5099062;28;20580;-65
2021/05/31 10:24:13;;;;;;;4.07;2.67;;;28.30;94.90;;;;;;5100247;28;20191;-64
2021/05/31 10:26:42;;;;;;;3.00;2.80;;;28.10;92.80;;;;;;5103807;28;20223;-64
2021/05/31 10:29:10;;;;;;;3.13;2.90;;;28.00;94.00;;;;;;5097131;28;20206;-65
2021/05/31 10:31:43;;;;;;;3.20;2.85;;;28.20;92.30;;;;;;5091138;28;20194;-64
2021/05/31 10:34:19;;;;;;;2.78;2.58;;;28.10;92.30;;;;;;5098379;28;20191;-64
2021/05/31 10:36:50;;;;;;;4.30;2.92;;;28.40;92.10;;;;;;5096245;28;20202;-64
2021/05/31 10:39:24;;;;;;;5.68;3.15;;;28.40;91.50;;;;;;5098141;28;20179;-65
2021/05/31 10:42:04;;;;;;;3.38;3.08;;;27.90;91.60;;;;;;5098438;28;20181;-64
2021/05/31 10:44:33;;;;;;;3.05;2.78;;;27.30;93.80;;;;;;5093549;28;20184;-63
2021/05/31 10:47:12;;;;;;;3.00;2.90;;;27.40;93.50;;;;;;5092368;28;20414;-63
2021/05/31 10:49:41;;;;;;;2.75;2.60;;;27.70;95.60;;;;;;5095617;28;20223;-63
2021/05/31 10:52:18;;;;;;;3.28;3.00;;;28.00;95.30;;;;;;5097486;28;20190;-64
2021/05/31 10:54:46;;;;;;;3.35;3.08;;;28.10;94.40;;;;;;5096593;28;20187;-67
2021/05/31 10:57:14;;;;;;;3.08;2.85;;;28.10;91.90;;;;;;5090719;28;20182;-64
2021/05/31 10:59:49;;;;;;;3.00;2.63;;;27.60;92.30;;;;;;5096283;28;20226;-63
2021/05/31 11:02:26;;;;;;;2.83;2.63;;;27.50;94.60;;;;;;5098797;28;20191;-64
2021/05/31 11:05:08;;;;;;;3.20;3.00;;;27.50;92.80;;;;;;5087634;28;20250;-62
2021/05/31 11:07:35;;;;;;;5.50;2.83;;;27.50;94.10;;;;;;5097780;28;20191;-64
2021/05/31 11:10:14;;;;;;;3.30;2.92;;;27.80;95.10;;;;;;5099736;28;20362;-64
2021/05/31 11:12:42;;;;;;;2.90;2.80;;;28.00;92.20;;;;;;5096361;28;20179;-63
2021/05/31 11:15:13;;;;;;;3.15;2.88;;;27.90;92.20;;;;;;5102405;28;20187;-64
2021/05/31 11:17:50;;;;;;;4.23;3.23;;;27.40;92.50;;;;;;5101483;28;20217;-64
2021/05/31 11:20:19;;;;;;;3.73;2.93;;;27.40;93.90;;;;;;5096285;28;20300;-64
2021/05/31 11:22:56;;;;;;;2.90;2.80;;;27.20;92.40;;;;;;5096613;28;20233;-64
2021/05/31 11:25:27;;;;;;;3.27;2.97;;;26.90;94.40;;;;;;5097157;28;20234;-63
2021/05/31 11:27:57;;;;;;;3.60;3.30;;;26.70;92.50;;;;;;5095439;28;20228;-59
2021/05/31 11:30:30;;;;;;;3.40;3.20;;;26.70;92.80;;;;;;5103157;28;20232;-64
2021/05/31 11:33:02;;;;;;;3.27;2.97;;;26.30;92.30;;;;;;5102145;28;20364;-63
2021/05/31 11:35:31;;;;;;;2.93;2.73;;;26.50;95.00;;;;;;5102767;28;20183;-64
2021/05/31 11:38:03;;;;;;;3.67;3.37;;;26.70;94.40;;;;;;5105512;28;20348;-65
2021/05/31 11:40:35;;;;;;;3.17;2.90;;;26.30;94.00;;;;;;5100671;28;20191;-66
2021/05/31 11:43:04;;;;;;;4.33;3.33;;;26.40;94.10;;;;;;5099774;28;20428;-64
2021/05/31 11:45:36;;;;;;;3.90;3.50;;;26.40;95.50;;;;;;5100535;28;20180;-66
2021/05/31 11:48:08;;;;;;;4.27;3.30;;;26.20;94.40;;;;;;5102056;28;20414;-62
2021/05/31 11:50:40;;;;;;;3.50;3.30;;;26.40;97.30;;;;;;5104149;28;20211;-63
2021/05/31 11:53:09;;;;;;;3.47;2.97;;;26.60;95.10;;;;;;5096696;28;20461;-64
2021/05/31 11:55:38;;;;;;;4.03;3.57;;;26.70;95.00;;;;;;5104732;28;20186;-63
2021/05/31 11:58:06;;;;;;;3.40;3.10;;;26.00;94.90;;;;;;5097425;28;20182;-64
2021/05/31 12:00:43;;;;;;;5.63;3.60;;;26.10;97.10;;;;;;5090241;28;20418;-66
2021/05/31 12:03:21;;;;;;;3.57;3.23;;;25.90;93.10;;;;;;5102438;28;20178;-63
2021/05/31 12:05:54;;;;;;;3.50;3.30;;;25.90;95.90;;;;;;5098448;28;20186;-66
2021/05/31 12:08:23;;;;;;;3.70;3.30;;;25.80;94.30;;;;;;5104480;28;20186;-66
2021/05/31 12:10:51;;;;;;;4.33;3.50;;;25.80;94.30;;;;;;5103297;28;20265;-66
2021/05/31 12:13:28;;;;;;;3.57;3.27;;;25.80;94.80;;;;;;5103542;28;20193;-66
2021/05/31 12:15:56;;;;;;;4.17;3.30;;;25.50;95.70;;;;;;5100494;28;20259;-66
2021/05/31 12:18:27;;;;;;;3.90;3.43;;;25.40;94.80;;;;;;5102959;28;20319;-65
2021/05/31 12:21:00;;;;;;;3.80;3.50;;;25.40;96.20;;;;;;5102940;28;20180;-65
2021/05/31 12:23:28;;;;;;;6.73;3.40;;;25.40;96.10;;;;;;5092361;28;20352;-66
2021/05/31 12:26:01;;;;;;;5.10;3.30;;;25.30;94.00;;;;;;5101249;28;20220;-66
2021/05/31 12:28:34;;;;;;;3.93;3.70;;;25.20;94.40;;;;;;5103576;28;20191;-67
2021/05/31 12:31:03;;;;;;;4.53;3.43;;;25.20;93.60;;;;;;5102978;28;20258;-66
2021/05/31 12:33:32;;;;;;;3.63;3.43;;;25.00;95.40;;;;;;5102547;28;20264;-66
2021/05/31 12:36:03;;;;;;;4.30;3.53;;;24.80;95.40;;;;;;5099310;28;20187;-66
2021/05/31 12:38:32;;;;;;;3.90;3.60;;;24.80;96.40;;;;;;5094107;28;20176;-66
2021/05/31 12:41:22;;;;;;;5.27;3.60;;;24.80;94.10;;;;;;5092596;28;20342;-66
2021/05/31 12:43:49;;;;;;;5.10;3.40;;;25.00;97.50;;;;;;5095693;28;20463;-66
2021/05/31 12:46:18;;;;;;;3.37;3.17;;;25.00;95.60;;;;;;5089773;28;20196;-66
2021/05/31 12:48:49;;;;;;;3.57;3.30;;;24.80;95.00;;;;;;5098184;28;20203;-63
2021/05/31 12:51:18;;;;;;;9.33;3.67;;;24.90;96.50;;;;;;5103344;28;20290;-64
2021/05/31 12:53:46;;;;;;;3.80;3.50;;;25.00;94.80;;;;;;5097652;28;20255;-66
2021/05/31 12:56:15;;;;;;;4.20;3.80;;;24.90;94.10;;;;;;5098882;28;20175;-66
2021/05/31 12:59:04;;;;;;;8.47;3.60;;;24.60;94.30;;;;;;5102905;28;20315;-66
2021/05/31 13:01:33;;;;;;;4.07;3.70;;;24.80;98.20;;;;;;5101833;28;20187;-66
2021/05/31 13:04:02;;;;;;;6.13;3.80;;;24.90;96.20;;;;;;5102855;28;20322;-65
2021/05/31 13:06:35;;;;;;;3.73;3.53;;;25.10;97.20;;;;;;5102486;28;20225;-66
2021/05/31 13:09:04;;;;;;;3.87;3.63;;;25.20;94.70;;;;;;5091473;28;20213;-66
2021/05/31 13:11:40;;;;;;;3.90;3.60;;;25.20;98.30;;;;;;5092158;28;20217;-66
2021/05/31 13:14:18;;;;;;;6.83;3.83;;;25.30;98.40;;;;;;5099496;28;20358;-63